sensor_id;sensor_type;location;lat;lon;timestamp;temperature;humidity
8420;DHT22;4247;48.550;8.822;2023-12-22T00:02:17;6.70;99.90
8420;DHT22;4247;48.550;8.822;2023-12-22T00:04:45;6.70;99.90
8420;DHT22;4247;48.550;8.822;2023-12-22T00:07:13;6.60;99.90
8420;DHT22;4247;48.550;8.822;2023-12-22T00:09:40;6.60;99.90
8420;DHT22;4247;48.550;8.822;2023-12-22T00:12:07;6.70;99.90
8420;DHT22;4247;48.550;8.822;2023-12-22T00:14:33;6.70;99.90
8420;DHT22;4247;48.550;8.822;2023-12-22T00:17:00;6.70;99.90
8420;DHT22;4247;48.550;8.822;2023-12-22T00:19:27;6.70;99.90
8420;DHT22;4247;48.550;8.822;2023-12-22T00:21:53;6.80;99.90
8420;DHT22;4247;48.550;8.822;2023-12-22T00:24:21;6.80;99.90
8420;DHT22;4247;48.550;8.822;2023-12-22T00:26:48;6.80;99.90
8420;DHT22;4247;48.550;8.822;2023-12-22T00:29:15;6.80;99.90
8420;DHT22;4247;48.550;8.822;2023-12-22T00:31:41;6.80;99.90
8420;DHT22;4247;48.550;8.822;2023-12-22T00:34:08;6.80;99.90
8420;DHT22;4247;48.550;8.822;2023-12-22T00:36:35;6.80;99.90
8420;DHT22;4247;48.550;8.822;2023-12-22T00:39:01;6.80;99.90
8420;DHT22;4247;48.550;8.822;2023-12-22T00:41:29;6.90;99.90
8420;DHT22;4247;48.550;8.822;2023-12-22T00:43:56;6.90;99.90
8420;DHT22;4247;48.550;8.822;2023-12-22T00:46:23;6.90;99.90
8420;DHT22;4247;48.550;8.822;2023-12-22T00:48:49;6.90;99.90
8420;DHT22;4247;48.550;8.822;2023-12-22T00:51:16;6.90;99.90
8420;DHT22;4247;48.550;8.822;2023-12-22T00:53:43;6.90;99.90
8420;DHT22;4247;48.550;8.822;2023-12-22T00:56:10;6.90;99.90
8420;DHT22;4247;48.550;8.822;2023-12-22T00:58:40;6.90;99.90
8420;DHT22;4247;48.550;8.822;2023-12-22T01:01:07;6.80;99.90
8420;DHT22;4247;48.550;8.822;2023-12-22T01:03:33;6.70;99.90
8420;DHT22;4247;48.550;8.822;2023-12-22T01:06:00;6.70;99.90
8420;DHT22;4247;48.550;8.822;2023-12-22T01:08:27;6.60;99.90
8420;DHT22;4247;48.550;8.822;2023-12-22T01:10:53;6.50;99.90
8420;DHT22;4247;48.550;8.822;2023-12-22T01:13:20;6.50;99.90
8420;DHT22;4247;48.550;8.822;2023-12-22T01:15:48;6.50;99.90
8420;DHT22;4247;48.550;8.822;2023-12-22T01:18:15;6.50;99.90
8420;DHT22;4247;48.550;8.822;2023-12-22T01:20:42;6.50;99.90
8420;DHT22;4247;48.550;8.822;2023-12-22T01:23:08;6.50;99.90
8420;DHT22;4247;48.550;8.822;2023-12-22T01:25:35;6.40;99.90
8420;DHT22;4247;48.550;8.822;2023-12-22T01:28:02;6.50;99.90
8420;DHT22;4247;48.550;8.822;2023-12-22T01:30:29;6.50;99.90
8420;DHT22;4247;48.550;8.822;2023-12-22T01:32:57;6.40;99.90
8420;DHT22;4247;48.550;8.822;2023-12-22T01:35:23;6.50;99.90
8420;DHT22;4247;48.550;8.822;2023-12-22T01:37:50;6.40;99.90
8420;DHT22;4247;48.550;8.822;2023-12-22T01:40:17;6.40;99.90
8420;DHT22;4247;48.550;8.822;2023-12-22T01:42:43;6.30;99.90
8420;DHT22;4247;48.550;8.822;2023-12-22T01:45:10;6.20;99.90
8420;DHT22;4247;48.550;8.822;2023-12-22T01:47:37;6.10;99.90
8420;DHT22;4247;48.550;8.822;2023-12-22T01:50:06;6.00;99.90
8420;DHT22;4247;48.550;8.822;2023-12-22T01:52:36;5.90;99.90
8420;DHT22;4247;48.550;8.822;2023-12-22T01:55:03;5.90;99.90
8420;DHT22;4247;48.550;8.822;2023-12-22T01:57:30;5.80;99.90
8420;DHT22;4247;48.550;8.822;2023-12-22T01:59:57;5.80;99.90
8420;DHT22;4247;48.550;8.822;2023-12-22T02:02:24;5.80;99.90
8420;DHT22;4247;48.550;8.822;2023-12-22T02:04:51;5.70;99.90
8420;DHT22;4247;48.550;8.822;2023-12-22T02:07:19;5.70;99.90
8420;DHT22;4247;48.550;8.822;2023-12-22T02:09:46;5.70;99.90
8420;DHT22;4247;48.550;8.822;2023-12-22T02:12:13;5.70;99.90
8420;DHT22;4247;48.550;8.822;2023-12-22T02:14:40;5.70;99.90
8420;DHT22;4247;48.550;8.822;2023-12-22T02:17:11;5.70;99.90
8420;DHT22;4247;48.550;8.822;2023-12-22T02:19:42;5.80;99.90
8420;DHT22;4247;48.550;8.822;2023-12-22T02:22:10;5.80;99.90
8420;DHT22;4247;48.550;8.822;2023-12-22T02:24:38;5.80;99.90
8420;DHT22;4247;48.550;8.822;2023-12-22T02:27:08;5.80;99.90
8420;DHT22;4247;48.550;8.822;2023-12-22T02:29:37;5.80;99.90
8420;DHT22;4247;48.550;8.822;2023-12-22T02:32:08;5.80;99.90
8420;DHT22;4247;48.550;8.822;2023-12-22T02:34:37;5.80;99.90
8420;DHT22;4247;48.550;8.822;2023-12-22T02:37:07;5.80;99.90
8420;DHT22;4247;48.550;8.822;2023-12-22T02:39:35;5.80;99.90
8420;DHT22;4247;48.550;8.822;2023-12-22T02:42:04;5.80;99.90
8420;DHT22;4247;48.550;8.822;2023-12-22T02:44:32;5.90;99.90
8420;DHT22;4247;48.550;8.822;2023-12-22T02:46:58;5.90;99.90
8420;DHT22;4247;48.550;8.822;2023-12-22T02:49:25;5.90;99.90
8420;DHT22;4247;48.550;8.822;2023-12-22T02:51:52;5.90;99.90
8420;DHT22;4247;48.550;8.822;2023-12-22T02:54:18;5.90;99.90
8420;DHT22;4247;48.550;8.822;2023-12-22T02:56:45;5.90;99.90
8420;DHT22;4247;48.550;8.822;2023-12-22T02:59:13;5.90;99.90
8420;DHT22;4247;48.550;8.822;2023-12-22T03:01:40;5.90;99.90
8420;DHT22;4247;48.550;8.822;2023-12-22T03:04:07;5.80;99.90
8420;DHT22;4247;48.550;8.822;2023-12-22T03:06:33;5.80;99.90
8420;DHT22;4247;48.550;8.822;2023-12-22T03:08:59;5.80;99.90
8420;DHT22;4247;48.550;8.822;2023-12-22T03:11:26;5.70;99.90
8420;DHT22;4247;48.550;8.822;2023-12-22T03:13:52;5.70;99.90
8420;DHT22;4247;48.550;8.822;2023-12-22T03:16:20;5.70;99.90
8420;DHT22;4247;48.550;8.822;2023-12-22T03:18:47;5.70;99.90
8420;DHT22;4247;48.550;8.822;2023-12-22T03:21:16;5.60;99.90
8420;DHT22;4247;48.550;8.822;2023-12-22T03:23:44;5.70;99.90
8420;DHT22;4247;48.550;8.822;2023-12-22T03:26:10;5.70;99.90
8420;DHT22;4247;48.550;8.822;2023-12-22T03:28:37;5.70;99.90
8420;DHT22;4247;48.550;8.822;2023-12-22T03:31:04;5.70;99.90
8420;DHT22;4247;48.550;8.822;2023-12-22T03:33:33;5.70;99.90
8420;DHT22;4247;48.550;8.822;2023-12-22T03:36:00;5.70;99.90
8420;DHT22;4247;48.550;8.822;2023-12-22T03:38:27;5.70;99.90
8420;DHT22;4247;48.550;8.822;2023-12-22T03:40:53;5.80;99.90
8420;DHT22;4247;48.550;8.822;2023-12-22T03:43:20;5.80;99.90
8420;DHT22;4247;48.550;8.822;2023-12-22T03:45:47;5.80;99.90
8420;DHT22;4247;48.550;8.822;2023-12-22T03:48:13;5.80;99.90
8420;DHT22;4247;48.550;8.822;2023-12-22T03:50:41;5.80;99.90
8420;DHT22;4247;48.550;8.822;2023-12-22T03:53:09;5.90;99.90
8420;DHT22;4247;48.550;8.822;2023-12-22T03:55:35;5.90;99.90
8420;DHT22;4247;48.550;8.822;2023-12-22T03:58:02;5.90;99.90
8420;DHT22;4247;48.550;8.822;2023-12-22T04:00:30;5.90;99.90
8420;DHT22;4247;48.550;8.822;2023-12-22T04:02:57;6.00;99.90
8420;DHT22;4247;48.550;8.822;2023-12-22T04:05:23;6.00;99.90
8420;DHT22;4247;48.550;8.822;2023-12-22T04:07:51;6.00;99.90
8420;DHT22;4247;48.550;8.822;2023-12-22T04:10:18;6.00;99.90
8420;DHT22;4247;48.550;8.822;2023-12-22T04:12:45;6.00;99.90
8420;DHT22;4247;48.550;8.822;2023-12-22T04:15:11;6.10;99.90
8420;DHT22;4247;48.550;8.822;2023-12-22T04:17:38;6.10;99.90
8420;DHT22;4247;48.550;8.822;2023-12-22T04:20:06;6.10;99.90
8420;DHT22;4247;48.550;8.822;2023-12-22T04:22:33;6.10;99.90
8420;DHT22;4247;48.550;8.822;2023-12-22T04:25:01;6.10;99.90
8420;DHT22;4247;48.550;8.822;2023-12-22T04:27:28;6.10;99.90
8420;DHT22;4247;48.550;8.822;2023-12-22T04:29:54;6.10;99.90
8420;DHT22;4247;48.550;8.822;2023-12-22T04:32:21;6.10;99.90
8420;DHT22;4247;48.550;8.822;2023-12-22T04:34:48;6.10;99.90
8420;DHT22;4247;48.550;8.822;2023-12-22T04:37:14;6.10;99.90
8420;DHT22;4247;48.550;8.822;2023-12-22T04:39:41;6.10;99.90
8420;DHT22;4247;48.550;8.822;2023-12-22T04:42:09;6.00;99.90
8420;DHT22;4247;48.550;8.822;2023-12-22T04:44:36;6.10;99.90
8420;DHT22;4247;48.550;8.822;2023-12-22T04:47:03;6.10;99.90
8420;DHT22;4247;48.550;8.822;2023-12-22T04:49:29;6.10;99.90
8420;DHT22;4247;48.550;8.822;2023-12-22T04:51:56;6.10;99.90
8420;DHT22;4247;48.550;8.822;2023-12-22T04:54:22;6.10;99.90
8420;DHT22;4247;48.550;8.822;2023-12-22T04:56:49;6.10;99.90
8420;DHT22;4247;48.550;8.822;2023-12-22T04:59:17;6.10;99.90
8420;DHT22;4247;48.550;8.822;2023-12-22T05:01:44;6.10;99.90
8420;DHT22;4247;48.550;8.822;2023-12-22T05:04:11;6.10;99.90
8420;DHT22;4247;48.550;8.822;2023-12-22T05:06:38;6.20;99.90
8420;DHT22;4247;48.550;8.822;2023-12-22T05:09:04;6.20;99.90
8420;DHT22;4247;48.550;8.822;2023-12-22T05:11:31;6.20;99.90
8420;DHT22;4247;48.550;8.822;2023-12-22T05:13:58;6.20;99.90
8420;DHT22;4247;48.550;8.822;2023-12-22T05:16:26;6.20;99.90
8420;DHT22;4247;48.550;8.822;2023-12-22T05:18:54;6.20;99.90
8420;DHT22;4247;48.550;8.822;2023-12-22T05:21:21;6.20;99.90
8420;DHT22;4247;48.550;8.822;2023-12-22T05:23:48;6.20;99.90
8420;DHT22;4247;48.550;8.822;2023-12-22T05:26:17;6.20;99.90
8420;DHT22;4247;48.550;8.822;2023-12-22T05:28:44;6.20;99.90
8420;DHT22;4247;48.550;8.822;2023-12-22T05:31:11;6.20;99.90
8420;DHT22;4247;48.550;8.822;2023-12-22T05:33:39;6.30;99.90
8420;DHT22;4247;48.550;8.822;2023-12-22T05:36:06;6.30;99.90
8420;DHT22;4247;48.550;8.822;2023-12-22T05:38:33;6.30;99.90
8420;DHT22;4247;48.550;8.822;2023-12-22T05:41:03;6.30;99.90
8420;DHT22;4247;48.550;8.822;2023-12-22T05:43:30;6.30;99.90
8420;DHT22;4247;48.550;8.822;2023-12-22T05:45:57;6.30;99.90
8420;DHT22;4247;48.550;8.822;2023-12-22T05:48:24;6.30;99.90
8420;DHT22;4247;48.550;8.822;2023-12-22T05:50:52;6.30;99.90
8420;DHT22;4247;48.550;8.822;2023-12-22T05:53:18;6.40;99.90
8420;DHT22;4247;48.550;8.822;2023-12-22T05:55:45;6.40;99.90
8420;DHT22;4247;48.550;8.822;2023-12-22T05:58:12;6.40;99.90
8420;DHT22;4247;48.550;8.822;2023-12-22T06:00:38;6.40;99.90
8420;DHT22;4247;48.550;8.822;2023-12-22T06:03:05;6.40;99.90
8420;DHT22;4247;48.550;8.822;2023-12-22T06:05:32;6.40;99.90
8420;DHT22;4247;48.550;8.822;2023-12-22T06:08:00;6.40;99.90
8420;DHT22;4247;48.550;8.822;2023-12-22T06:10:26;6.40;99.90
8420;DHT22;4247;48.550;8.822;2023-12-22T06:12:53;6.40;99.90
8420;DHT22;4247;48.550;8.822;2023-12-22T06:15:20;6.40;99.90
8420;DHT22;4247;48.550;8.822;2023-12-22T06:17:46;6.50;99.90
8420;DHT22;4247;48.550;8.822;2023-12-22T06:20:13;6.50;99.90
8420;DHT22;4247;48.550;8.822;2023-12-22T06:22:40;6.50;99.90
8420;DHT22;4247;48.550;8.822;2023-12-22T06:25:09;6.50;99.90
8420;DHT22;4247;48.550;8.822;2023-12-22T06:27:36;6.50;99.90
8420;DHT22;4247;48.550;8.822;2023-12-22T06:30:04;6.50;99.90
8420;DHT22;4247;48.550;8.822;2023-12-22T06:32:31;6.40;99.90
8420;DHT22;4247;48.550;8.822;2023-12-22T06:34:58;6.50;99.90
8420;DHT22;4247;48.550;8.822;2023-12-22T06:37:26;6.50;99.90
8420;DHT22;4247;48.550;8.822;2023-12-22T06:39:52;6.40;99.90
8420;DHT22;4247;48.550;8.822;2023-12-22T06:42:20;6.50;99.90
8420;DHT22;4247;48.550;8.822;2023-12-22T06:44:47;6.50;99.90
8420;DHT22;4247;48.550;8.822;2023-12-22T06:47:14;6.50;99.90
8420;DHT22;4247;48.550;8.822;2023-12-22T06:49:41;6.50;99.90
8420;DHT22;4247;48.550;8.822;2023-12-22T06:52:08;6.40;99.90
8420;DHT22;4247;48.550;8.822;2023-12-22T06:54:34;6.50;99.90
8420;DHT22;4247;48.550;8.822;2023-12-22T06:57:01;6.50;99.90
8420;DHT22;4247;48.550;8.822;2023-12-22T06:59:29;6.50;99.90
8420;DHT22;4247;48.550;8.822;2023-12-22T07:01:56;6.50;99.90
8420;DHT22;4247;48.550;8.822;2023-12-22T07:04:22;6.50;99.90
8420;DHT22;4247;48.550;8.822;2023-12-22T07:06:49;6.50;99.90
8420;DHT22;4247;48.550;8.822;2023-12-22T07:09:30;6.50;99.90
8420;DHT22;4247;48.550;8.822;2023-12-22T07:11:57;6.40;99.90
8420;DHT22;4247;48.550;8.822;2023-12-22T07:14:24;6.40;99.90
8420;DHT22;4247;48.550;8.822;2023-12-22T07:16:52;6.40;99.90
8420;DHT22;4247;48.550;8.822;2023-12-22T07:19:18;6.40;99.90
8420;DHT22;4247;48.550;8.822;2023-12-22T07:21:45;6.40;99.90
8420;DHT22;4247;48.550;8.822;2023-12-22T07:24:12;6.40;99.90
8420;DHT22;4247;48.550;8.822;2023-12-22T07:26:38;6.40;99.90
8420;DHT22;4247;48.550;8.822;2023-12-22T07:29:05;6.40;99.90
8420;DHT22;4247;48.550;8.822;2023-12-22T07:31:32;6.40;99.90
8420;DHT22;4247;48.550;8.822;2023-12-22T07:34:00;6.40;99.90
8420;DHT22;4247;48.550;8.822;2023-12-22T07:36:26;6.40;99.90
8420;DHT22;4247;48.550;8.822;2023-12-22T07:38:53;6.40;99.90
8420;DHT22;4247;48.550;8.822;2023-12-22T07:41:22;6.40;99.90
8420;DHT22;4247;48.550;8.822;2023-12-22T07:43:49;6.40;99.90
8420;DHT22;4247;48.550;8.822;2023-12-22T07:46:19;6.40;99.90
8420;DHT22;4247;48.550;8.822;2023-12-22T07:48:46;6.40;99.90
8420;DHT22;4247;48.550;8.822;2023-12-22T07:51:14;6.50;99.90
8420;DHT22;4247;48.550;8.822;2023-12-22T07:53:41;6.40;99.90
8420;DHT22;4247;48.550;8.822;2023-12-22T07:56:08;6.50;99.90
8420;DHT22;4247;48.550;8.822;2023-12-22T07:58:36;6.50;99.90
8420;DHT22;4247;48.550;8.822;2023-12-22T08:01:03;6.50;99.90
8420;DHT22;4247;48.550;8.822;2023-12-22T08:03:30;6.50;99.90
8420;DHT22;4247;48.550;8.822;2023-12-22T08:05:57;6.60;99.90
8420;DHT22;4247;48.550;8.822;2023-12-22T08:08:26;6.60;99.90
8420;DHT22;4247;48.550;8.822;2023-12-22T08:10:53;6.60;99.90
8420;DHT22;4247;48.550;8.822;2023-12-22T08:13:19;6.60;99.90
8420;DHT22;4247;48.550;8.822;2023-12-22T08:15:46;6.60;99.90
8420;DHT22;4247;48.550;8.822;2023-12-22T08:18:13;6.60;99.90
8420;DHT22;4247;48.550;8.822;2023-12-22T08:20:40;6.70;99.90
8420;DHT22;4247;48.550;8.822;2023-12-22T08:23:06;6.70;99.90
8420;DHT22;4247;48.550;8.822;2023-12-22T08:25:34;6.70;99.90
8420;DHT22;4247;48.550;8.822;2023-12-22T08:28:01;6.70;99.90
8420;DHT22;4247;48.550;8.822;2023-12-22T08:30:28;6.70;99.90
8420;DHT22;4247;48.550;8.822;2023-12-22T08:32:55;6.80;99.90
8420;DHT22;4247;48.550;8.822;2023-12-22T08:35:22;6.80;99.90
8420;DHT22;4247;48.550;8.822;2023-12-22T08:37:49;6.80;99.90
8420;DHT22;4247;48.550;8.822;2023-12-22T08:40:15;6.90;99.90
8420;DHT22;4247;48.550;8.822;2023-12-22T08:42:43;6.90;99.90
8420;DHT22;4247;48.550;8.822;2023-12-22T08:45:10;6.90;99.90
8420;DHT22;4247;48.550;8.822;2023-12-22T08:47:37;6.90;99.90
8420;DHT22;4247;48.550;8.822;2023-12-22T08:50:05;6.90;99.90
8420;DHT22;4247;48.550;8.822;2023-12-22T08:52:33;6.90;99.90
8420;DHT22;4247;48.550;8.822;2023-12-22T08:55:00;6.90;99.90
8420;DHT22;4247;48.550;8.822;2023-12-22T08:57:27;6.90;99.90
8420;DHT22;4247;48.550;8.822;2023-12-22T08:59:55;6.90;99.90
8420;DHT22;4247;48.550;8.822;2023-12-22T09:02:22;6.90;99.90
8420;DHT22;4247;48.550;8.822;2023-12-22T09:04:48;6.90;99.90
8420;DHT22;4247;48.550;8.822;2023-12-22T09:07:16;6.90;99.90
8420;DHT22;4247;48.550;8.822;2023-12-22T09:09:43;6.80;99.90
8420;DHT22;4247;48.550;8.822;2023-12-22T09:12:09;6.90;99.90
8420;DHT22;4247;48.550;8.822;2023-12-22T09:14:36;6.80;99.90
8420;DHT22;4247;48.550;8.822;2023-12-22T09:17:04;6.90;99.90
8420;DHT22;4247;48.550;8.822;2023-12-22T09:19:32;6.90;99.90
8420;DHT22;4247;48.550;8.822;2023-12-22T09:21:59;6.90;99.90
8420;DHT22;4247;48.550;8.822;2023-12-22T09:24:26;6.80;99.90
8420;DHT22;4247;48.550;8.822;2023-12-22T09:26:53;6.80;99.90
8420;DHT22;4247;48.550;8.822;2023-12-22T09:29:19;6.80;99.90
8420;DHT22;4247;48.550;8.822;2023-12-22T09:31:47;6.80;99.90
8420;DHT22;4247;48.550;8.822;2023-12-22T09:34:15;6.70;99.90
8420;DHT22;4247;48.550;8.822;2023-12-22T09:36:42;6.80;99.90
8420;DHT22;4247;48.550;8.822;2023-12-22T09:39:08;6.80;99.90
8420;DHT22;4247;48.550;8.822;2023-12-22T09:41:35;6.80;99.90
8420;DHT22;4247;48.550;8.822;2023-12-22T09:44:03;6.80;99.90
8420;DHT22;4247;48.550;8.822;2023-12-22T09:46:31;6.80;99.90
8420;DHT22;4247;48.550;8.822;2023-12-22T09:48:58;6.90;99.90
8420;DHT22;4247;48.550;8.822;2023-12-22T09:51:27;6.90;99.90
8420;DHT22;4247;48.550;8.822;2023-12-22T09:53:55;6.90;99.90
8420;DHT22;4247;48.550;8.822;2023-12-22T09:56:24;6.90;99.90
8420;DHT22;4247;48.550;8.822;2023-12-22T09:58:51;6.90;99.90
8420;DHT22;4247;48.550;8.822;2023-12-22T10:01:20;6.90;99.90
8420;DHT22;4247;48.550;8.822;2023-12-22T10:03:48;6.90;99.90
8420;DHT22;4247;48.550;8.822;2023-12-22T10:06:15;6.90;99.90
8420;DHT22;4247;48.550;8.822;2023-12-22T10:08:45;6.90;99.90
8420;DHT22;4247;48.550;8.822;2023-12-22T10:11:13;7.00;99.90
8420;DHT22;4247;48.550;8.822;2023-12-22T10:13:41;7.00;99.90
8420;DHT22;4247;48.550;8.822;2023-12-22T10:16:08;7.00;99.90
8420;DHT22;4247;48.550;8.822;2023-12-22T10:18:34;7.00;99.90
8420;DHT22;4247;48.550;8.822;2023-12-22T10:21:01;7.00;99.90
8420;DHT22;4247;48.550;8.822;2023-12-22T10:23:28;6.90;99.90
8420;DHT22;4247;48.550;8.822;2023-12-22T10:25:57;7.00;99.90
8420;DHT22;4247;48.550;8.822;2023-12-22T10:28:27;7.00;99.90
8420;DHT22;4247;48.550;8.822;2023-12-22T10:30:54;6.90;99.90
8420;DHT22;4247;48.550;8.822;2023-12-22T10:33:24;6.90;99.90
8420;DHT22;4247;48.550;8.822;2023-12-22T10:35:53;6.90;99.90
8420;DHT22;4247;48.550;8.822;2023-12-22T10:38:20;6.90;99.90
8420;DHT22;4247;48.550;8.822;2023-12-22T10:40:48;6.90;99.90
8420;DHT22;4247;48.550;8.822;2023-12-22T10:43:17;6.90;99.90
8420;DHT22;4247;48.550;8.822;2023-12-22T10:45:44;7.00;99.90
8420;DHT22;4247;48.550;8.822;2023-12-22T10:48:11;7.00;99.90
8420;DHT22;4247;48.550;8.822;2023-12-22T10:50:39;7.00;99.90
8420;DHT22;4247;48.550;8.822;2023-12-22T10:53:06;7.00;99.90
8420;DHT22;4247;48.550;8.822;2023-12-22T10:55:34;7.00;99.90
8420;DHT22;4247;48.550;8.822;2023-12-22T10:58:02;7.00;99.90
8420;DHT22;4247;48.550;8.822;2023-12-22T11:00:32;7.00;99.90
8420;DHT22;4247;48.550;8.822;2023-12-22T11:03:01;7.00;99.90
8420;DHT22;4247;48.550;8.822;2023-12-22T11:05:29;7.00;99.90
8420;DHT22;4247;48.550;8.822;2023-12-22T11:08:00;7.00;99.90
8420;DHT22;4247;48.550;8.822;2023-12-22T11:10:30;7.00;99.90
8420;DHT22;4247;48.550;8.822;2023-12-22T11:12:57;7.00;99.90
8420;DHT22;4247;48.550;8.822;2023-12-22T11:15:24;7.00;99.90
8420;DHT22;4247;48.550;8.822;2023-12-22T11:17:56;7.00;99.90
8420;DHT22;4247;48.550;8.822;2023-12-22T11:20:24;7.00;99.90
8420;DHT22;4247;48.550;8.822;2023-12-22T11:22:52;7.10;99.90
8420;DHT22;4247;48.550;8.822;2023-12-22T11:25:21;7.10;99.90
8420;DHT22;4247;48.550;8.822;2023-12-22T11:27:52;7.10;99.90
8420;DHT22;4247;48.550;8.822;2023-12-22T11:30:20;7.10;99.90
8420;DHT22;4247;48.550;8.822;2023-12-22T11:32:49;7.10;99.90
8420;DHT22;4247;48.550;8.822;2023-12-22T11:35:17;7.10;99.90
8420;DHT22;4247;48.550;8.822;2023-12-22T11:37:45;7.10;99.90
8420;DHT22;4247;48.550;8.822;2023-12-22T11:40:13;7.10;99.90
8420;DHT22;4247;48.550;8.822;2023-12-22T11:42:43;7.10;99.90
8420;DHT22;4247;48.550;8.822;2023-12-22T11:45:12;7.10;99.90
8420;DHT22;4247;48.550;8.822;2023-12-22T11:47:41;7.10;99.90
8420;DHT22;4247;48.550;8.822;2023-12-22T11:50:09;7.20;99.90
8420;DHT22;4247;48.550;8.822;2023-12-22T11:52:37;7.20;99.90
8420;DHT22;4247;48.550;8.822;2023-12-22T11:55:05;7.20;99.90
8420;DHT22;4247;48.550;8.822;2023-12-22T11:57:33;7.20;99.90
8420;DHT22;4247;48.550;8.822;2023-12-22T12:00:06;7.20;99.90
8420;DHT22;4247;48.550;8.822;2023-12-22T12:02:34;7.20;99.90
8420;DHT22;4247;48.550;8.822;2023-12-22T12:05:03;7.20;99.90
8420;DHT22;4247;48.550;8.822;2023-12-22T12:07:38;7.20;99.90
8420;DHT22;4247;48.550;8.822;2023-12-22T12:10:07;7.20;99.90
8420;DHT22;4247;48.550;8.822;2023-12-22T12:12:34;7.20;99.90
8420;DHT22;4247;48.550;8.822;2023-12-22T12:15:08;7.30;99.90
8420;DHT22;4247;48.550;8.822;2023-12-22T12:17:38;7.30;99.90
8420;DHT22;4247;48.550;8.822;2023-12-22T12:20:06;7.30;99.90
8420;DHT22;4247;48.550;8.822;2023-12-22T12:22:34;7.20;99.90
8420;DHT22;4247;48.550;8.822;2023-12-22T12:25:07;7.30;99.90
8420;DHT22;4247;48.550;8.822;2023-12-22T12:27:35;7.30;99.90
8420;DHT22;4247;48.550;8.822;2023-12-22T12:30:11;7.30;99.90
8420;DHT22;4247;48.550;8.822;2023-12-22T12:32:37;7.30;99.90
8420;DHT22;4247;48.550;8.822;2023-12-22T12:35:04;7.30;99.90
8420;DHT22;4247;48.550;8.822;2023-12-22T12:37:31;7.30;99.90
8420;DHT22;4247;48.550;8.822;2023-12-22T12:39:59;7.40;99.90
8420;DHT22;4247;48.550;8.822;2023-12-22T12:42:32;7.30;99.90
8420;DHT22;4247;48.550;8.822;2023-12-22T12:44:59;7.30;99.90
8420;DHT22;4247;48.550;8.822;2023-12-22T12:47:26;7.30;99.90
8420;DHT22;4247;48.550;8.822;2023-12-22T12:49:59;7.40;99.90
8420;DHT22;4247;48.550;8.822;2023-12-22T12:52:26;7.40;99.90
8420;DHT22;4247;48.550;8.822;2023-12-22T12:54:53;7.40;99.90
8420;DHT22;4247;48.550;8.822;2023-12-22T12:57:20;7.40;99.90
8420;DHT22;4247;48.550;8.822;2023-12-22T12:59:48;7.40;99.90
8420;DHT22;4247;48.550;8.822;2023-12-22T13:02:15;7.40;99.90
8420;DHT22;4247;48.550;8.822;2023-12-22T13:04:42;7.50;99.90
8420;DHT22;4247;48.550;8.822;2023-12-22T13:07:09;7.50;99.90
8420;DHT22;4247;48.550;8.822;2023-12-22T13:09:38;7.50;99.90
8420;DHT22;4247;48.550;8.822;2023-12-22T13:12:07;7.50;99.90
8420;DHT22;4247;48.550;8.822;2023-12-22T13:14:34;7.50;99.90
8420;DHT22;4247;48.550;8.822;2023-12-22T13:17:03;7.50;99.90
8420;DHT22;4247;48.550;8.822;2023-12-22T13:19:30;7.50;99.90
8420;DHT22;4247;48.550;8.822;2023-12-22T13:21:57;7.60;99.90
8420;DHT22;4247;48.550;8.822;2023-12-22T13:24:24;7.60;99.90
8420;DHT22;4247;48.550;8.822;2023-12-22T13:27:00;7.60;99.90
8420;DHT22;4247;48.550;8.822;2023-12-22T13:29:27;7.60;99.90
8420;DHT22;4247;48.550;8.822;2023-12-22T13:31:55;7.60;99.90
8420;DHT22;4247;48.550;8.822;2023-12-22T13:34:24;7.60;99.90
8420;DHT22;4247;48.550;8.822;2023-12-22T13:36:52;7.70;99.90
8420;DHT22;4247;48.550;8.822;2023-12-22T13:39:19;7.70;99.90
8420;DHT22;4247;48.550;8.822;2023-12-22T13:41:45;7.70;99.90
8420;DHT22;4247;48.550;8.822;2023-12-22T13:44:14;7.70;99.90
8420;DHT22;4247;48.550;8.822;2023-12-22T13:46:41;7.70;99.90
8420;DHT22;4247;48.550;8.822;2023-12-22T13:49:08;7.70;99.90
8420;DHT22;4247;48.550;8.822;2023-12-22T13:51:41;7.70;99.90
8420;DHT22;4247;48.550;8.822;2023-12-22T13:54:08;7.70;99.90
8420;DHT22;4247;48.550;8.822;2023-12-22T13:56:35;7.80;99.90
8420;DHT22;4247;48.550;8.822;2023-12-22T13:59:03;7.80;99.90
8420;DHT22;4247;48.550;8.822;2023-12-22T14:01:30;7.80;99.90
8420;DHT22;4247;48.550;8.822;2023-12-22T14:03:58;7.80;99.90
8420;DHT22;4247;48.550;8.822;2023-12-22T14:06:25;7.80;99.90
8420;DHT22;4247;48.550;8.822;2023-12-22T14:08:53;7.80;99.90
8420;DHT22;4247;48.550;8.822;2023-12-22T14:11:20;7.80;99.90
8420;DHT22;4247;48.550;8.822;2023-12-22T14:13:47;7.80;99.90
8420;DHT22;4247;48.550;8.822;2023-12-22T14:16:15;7.80;99.90
8420;DHT22;4247;48.550;8.822;2023-12-22T14:18:42;7.90;99.90
8420;DHT22;4247;48.550;8.822;2023-12-22T14:21:08;7.90;99.90
8420;DHT22;4247;48.550;8.822;2023-12-22T14:23:35;7.80;99.90
8420;DHT22;4247;48.550;8.822;2023-12-22T14:26:03;7.90;99.90
8420;DHT22;4247;48.550;8.822;2023-12-22T14:28:31;7.80;99.90
8420;DHT22;4247;48.550;8.822;2023-12-22T14:30:57;7.90;99.90
8420;DHT22;4247;48.550;8.822;2023-12-22T14:33:24;7.80;99.90
8420;DHT22;4247;48.550;8.822;2023-12-22T14:35:51;7.80;99.90
8420;DHT22;4247;48.550;8.822;2023-12-22T14:38:17;7.80;99.90
8420;DHT22;4247;48.550;8.822;2023-12-22T14:40:44;7.90;99.90
8420;DHT22;4247;48.550;8.822;2023-12-22T14:43:12;7.90;99.90
8420;DHT22;4247;48.550;8.822;2023-12-22T14:45:39;7.90;99.90
8420;DHT22;4247;48.550;8.822;2023-12-22T14:48:06;7.90;99.90
8420;DHT22;4247;48.550;8.822;2023-12-22T14:50:33;7.90;99.90
8420;DHT22;4247;48.550;8.822;2023-12-22T14:52:59;7.90;99.90
8420;DHT22;4247;48.550;8.822;2023-12-22T14:55:26;7.90;99.90
8420;DHT22;4247;48.550;8.822;2023-12-22T14:57:53;7.90;99.90
8420;DHT22;4247;48.550;8.822;2023-12-22T15:00:21;7.90;99.90
8420;DHT22;4247;48.550;8.822;2023-12-22T15:02:47;7.90;99.90
8420;DHT22;4247;48.550;8.822;2023-12-22T15:05:14;7.90;99.90
8420;DHT22;4247;48.550;8.822;2023-12-22T15:07:41;7.90;99.90
8420;DHT22;4247;48.550;8.822;2023-12-22T15:10:08;7.90;99.90
8420;DHT22;4247;48.550;8.822;2023-12-22T15:12:35;7.90;99.90
8420;DHT22;4247;48.550;8.822;2023-12-22T15:15:03;7.90;99.90
8420;DHT22;4247;48.550;8.822;2023-12-22T15:17:31;7.90;99.90
8420;DHT22;4247;48.550;8.822;2023-12-22T15:19:58;7.90;99.90
8420;DHT22;4247;48.550;8.822;2023-12-22T15:22:25;7.90;99.90
8420;DHT22;4247;48.550;8.822;2023-12-22T15:24:53;7.90;99.90
8420;DHT22;4247;48.550;8.822;2023-12-22T15:27:19;7.90;99.90
8420;DHT22;4247;48.550;8.822;2023-12-22T15:29:46;7.90;99.90
8420;DHT22;4247;48.550;8.822;2023-12-22T15:32:13;7.90;99.90
8420;DHT22;4247;48.550;8.822;2023-12-22T15:34:42;7.80;99.90
8420;DHT22;4247;48.550;8.822;2023-12-22T15:37:09;7.80;99.90
8420;DHT22;4247;48.550;8.822;2023-12-22T15:39:35;7.80;99.90
8420;DHT22;4247;48.550;8.822;2023-12-22T15:42:02;7.80;99.90
8420;DHT22;4247;48.550;8.822;2023-12-22T15:44:29;7.80;99.90
8420;DHT22;4247;48.550;8.822;2023-12-22T15:46:56;7.70;99.90
8420;DHT22;4247;48.550;8.822;2023-12-22T15:49:22;7.70;99.90
8420;DHT22;4247;48.550;8.822;2023-12-22T15:51:51;7.60;99.90
8420;DHT22;4247;48.550;8.822;2023-12-22T15:54:21;7.60;99.90
8420;DHT22;4247;48.550;8.822;2023-12-22T15:56:48;7.60;99.90
8420;DHT22;4247;48.550;8.822;2023-12-22T15:59:15;7.60;99.90
8420;DHT22;4247;48.550;8.822;2023-12-22T16:01:44;7.60;99.90
8420;DHT22;4247;48.550;8.822;2023-12-22T16:04:12;7.70;99.90
8420;DHT22;4247;48.550;8.822;2023-12-22T16:06:38;7.60;99.90
8420;DHT22;4247;48.550;8.822;2023-12-22T16:09:06;7.60;99.90
8420;DHT22;4247;48.550;8.822;2023-12-22T16:11:33;7.60;99.90
8420;DHT22;4247;48.550;8.822;2023-12-22T16:14:00;7.60;99.90
8420;DHT22;4247;48.550;8.822;2023-12-22T16:16:27;7.60;99.90
8420;DHT22;4247;48.550;8.822;2023-12-22T16:18:54;7.70;99.90